Round Lake, Illinois
Current Conditions -  °F | °C
As of 7:55 PM on Friday 24 Oct 2014 (Local Time) from KUGN Reporting Station
Haze Haze  
Wind Chill: 49°   Ceiling: 9000
Heat Index: 49°   Visibility: 1.7mi
Dew Point: 48°   Wind: 0mph
Humidity: 97%   Direction: NA
Pressure: 29.93"   Gusts: NA
Location:  42.35°N, 88.09°W
Report Text: KUGN 250055Z AUTO 00000KT 1 3/4SM BR BKN090 BKN100 09/09 A2993 RMK AO2 SLP137 T00940089
Loading
Personal Weather Stations






























Interactive Weather Map
Tropical Storm Tracking
New forecast layout! Learn more

10-Day Weather Forecast

Advertisements
Track Severe Weather on mobile